sensor_id;sensor_type;location;lat;lon;timestamp;temperature;humidity
7684;DHT22;3884;48.616;12.872;2023-04-01T00:01:28;8.70;99.90
7684;DHT22;3884;48.616;12.872;2023-04-01T00:03:55;8.70;99.90
7684;DHT22;3884;48.616;12.872;2023-04-01T00:06:22;8.70;99.90
7684;DHT22;3884;48.616;12.872;2023-04-01T00:08:49;8.70;99.90
7684;DHT22;3884;48.616;12.872;2023-04-01T00:11:18;8.70;99.90
7684;DHT22;3884;48.616;12.872;2023-04-01T00:13:46;8.60;99.90
7684;DHT22;3884;48.616;12.872;2023-04-01T00:16:14;8.70;99.90
7684;DHT22;3884;48.616;12.872;2023-04-01T00:18:41;8.70;99.90
7684;DHT22;3884;48.616;12.872;2023-04-01T00:21:08;8.80;99.90
7684;DHT22;3884;48.616;12.872;2023-04-01T00:23:35;8.70;1.00
7684;DHT22;3884;48.616;12.872;2023-04-01T00:26:03;8.70;1.00
7684;DHT22;3884;48.616;12.872;2023-04-01T00:28:30;8.70;1.00
7684;DHT22;3884;48.616;12.872;2023-04-01T00:30:58;8.70;1.00
7684;DHT22;3884;48.616;12.872;2023-04-01T00:33:30;8.70;1.00
7684;DHT22;3884;48.616;12.872;2023-04-01T00:36:05;8.70;1.00
7684;DHT22;3884;48.616;12.872;2023-04-01T00:38:35;8.80;1.00
7684;DHT22;3884;48.616;12.872;2023-04-01T00:41:01;8.80;1.00
7684;DHT22;3884;48.616;12.872;2023-04-01T00:43:28;8.70;1.00
7684;DHT22;3884;48.616;12.872;2023-04-01T00:45:55;8.70;1.00
7684;DHT22;3884;48.616;12.872;2023-04-01T00:48:26;8.70;1.00
7684;DHT22;3884;48.616;12.872;2023-04-01T00:50:56;8.70;1.00
7684;DHT22;3884;48.616;12.872;2023-04-01T00:53:24;8.70;1.00
7684;DHT22;3884;48.616;12.872;2023-04-01T00:55:57;8.70;1.00
7684;DHT22;3884;48.616;12.872;2023-04-01T00:58:27;8.70;1.00
7684;DHT22;3884;48.616;12.872;2023-04-01T01:00:56;8.70;1.00
7684;DHT22;3884;48.616;12.872;2023-04-01T01:03:26;8.70;1.00
7684;DHT22;3884;48.616;12.872;2023-04-01T01:06:23;8.60;1.00
7684;DHT22;3884;48.616;12.872;2023-04-01T01:09:14;8.60;1.00
7684;DHT22;3884;48.616;12.872;2023-04-01T01:11:50;8.60;1.00
7684;DHT22;3884;48.616;12.872;2023-04-01T01:14:25;8.60;1.00
7684;DHT22;3884;48.616;12.872;2023-04-01T01:16:57;8.60;1.00
7684;DHT22;3884;48.616;12.872;2023-04-01T01:19:55;8.60;1.00
7684;DHT22;3884;48.616;12.872;2023-04-01T01:25:27;8.60;1.00
7684;DHT22;3884;48.616;12.872;2023-04-01T01:28:06;8.60;1.00
7684;DHT22;3884;48.616;12.872;2023-04-01T01:30:42;8.70;1.00
7684;DHT22;3884;48.616;12.872;2023-04-01T01:33:27;8.60;1.00
7684;DHT22;3884;48.616;12.872;2023-04-01T01:36:02;8.60;1.00
7684;DHT22;3884;48.616;12.872;2023-04-01T01:38:34;8.60;39.30
7684;DHT22;3884;48.616;12.872;2023-04-01T01:41:06;8.60;1.00
7684;DHT22;3884;48.616;12.872;2023-04-01T01:43:37;8.60;1.00
7684;DHT22;3884;48.616;12.872;2023-04-01T01:46:09;8.60;1.00
7684;DHT22;3884;48.616;12.872;2023-04-01T01:48:37;8.60;1.00
7684;DHT22;3884;48.616;12.872;2023-04-01T01:51:07;8.60;13.60
7684;DHT22;3884;48.616;12.872;2023-04-01T01:53:34;8.60;1.00
7684;DHT22;3884;48.616;12.872;2023-04-01T01:56:02;8.60;55.20
7684;DHT22;3884;48.616;12.872;2023-04-01T01:58:34;8.60;1.00
7684;DHT22;3884;48.616;12.872;2023-04-01T02:01:09;8.60;1.00
7684;DHT22;3884;48.616;12.872;2023-04-01T02:03:39;8.60;1.00
7684;DHT22;3884;48.616;12.872;2023-04-01T02:06:11;8.60;19.00
7684;DHT22;3884;48.616;12.872;2023-04-01T02:08:42;8.50;99.90
7684;DHT22;3884;48.616;12.872;2023-04-01T02:11:15;8.50;1.00
7684;DHT22;3884;48.616;12.872;2023-04-01T02:13:51;8.40;1.00
7684;DHT22;3884;48.616;12.872;2023-04-01T02:16:21;8.40;99.90
7684;DHT22;3884;48.616;12.872;2023-04-01T02:18:52;8.50;99.90
7684;DHT22;3884;48.616;12.872;2023-04-01T02:21:24;8.50;1.00
7684;DHT22;3884;48.616;12.872;2023-04-01T02:23:53;8.40;1.00
7684;DHT22;3884;48.616;12.872;2023-04-01T02:26:24;8.40;1.00
7684;DHT22;3884;48.616;12.872;2023-04-01T02:28:53;8.30;1.00
7684;DHT22;3884;48.616;12.872;2023-04-01T02:31:20;8.40;1.00
7684;DHT22;3884;48.616;12.872;2023-04-01T02:33:48;8.40;1.00
7684;DHT22;3884;48.616;12.872;2023-04-01T02:36:16;8.40;99.90
7684;DHT22;3884;48.616;12.872;2023-04-01T02:38:45;8.40;1.00
7684;DHT22;3884;48.616;12.872;2023-04-01T02:41:13;8.30;1.00
7684;DHT22;3884;48.616;12.872;2023-04-01T02:43:40;8.30;1.00
7684;DHT22;3884;48.616;12.872;2023-04-01T02:46:07;8.20;1.00
7684;DHT22;3884;48.616;12.872;2023-04-01T02:48:34;8.30;1.00
7684;DHT22;3884;48.616;12.872;2023-04-01T02:51:01;8.20;1.00
7684;DHT22;3884;48.616;12.872;2023-04-01T02:53:28;8.20;1.00
7684;DHT22;3884;48.616;12.872;2023-04-01T02:55:56;8.20;1.00
7684;DHT22;3884;48.616;12.872;2023-04-01T02:58:23;8.10;12.60
7684;DHT22;3884;48.616;12.872;2023-04-01T03:00:50;8.10;99.90
7684;DHT22;3884;48.616;12.872;2023-04-01T03:03:17;8.10;99.90
7684;DHT22;3884;48.616;12.872;2023-04-01T03:05:44;8.00;99.90
7684;DHT22;3884;48.616;12.872;2023-04-01T03:08:11;8.10;99.90
7684;DHT22;3884;48.616;12.872;2023-04-01T03:10:38;8.10;56.20
7684;DHT22;3884;48.616;12.872;2023-04-01T03:13:07;8.10;63.70
7684;DHT22;3884;48.616;12.872;2023-04-01T03:15:34;8.10;97.70
7684;DHT22;3884;48.616;12.872;2023-04-01T03:18:01;8.10;42.60
7684;DHT22;3884;48.616;12.872;2023-04-01T03:20:28;8.10;99.90
7684;DHT22;3884;48.616;12.872;2023-04-01T03:22:55;8.10;1.00
7684;DHT22;3884;48.616;12.872;2023-04-01T03:25:22;8.10;1.00
7684;DHT22;3884;48.616;12.872;2023-04-01T03:27:49;8.10;1.00
7684;DHT22;3884;48.616;12.872;2023-04-01T03:30:18;8.10;8.60
7684;DHT22;3884;48.616;12.872;2023-04-01T03:32:49;8.10;73.60
7684;DHT22;3884;48.616;12.872;2023-04-01T03:35:16;8.20;1.00
7684;DHT22;3884;48.616;12.872;2023-04-01T03:37:45;8.30;1.00
7684;DHT22;3884;48.616;12.872;2023-04-01T03:40:12;8.20;1.00
7684;DHT22;3884;48.616;12.872;2023-04-01T03:42:39;8.20;99.90
7684;DHT22;3884;48.616;12.872;2023-04-01T03:45:06;8.20;1.00
7684;DHT22;3884;48.616;12.872;2023-04-01T03:47:35;8.20;1.00
7684;DHT22;3884;48.616;12.872;2023-04-01T03:50:03;8.20;1.00
7684;DHT22;3884;48.616;12.872;2023-04-01T03:52:30;8.20;1.00
7684;DHT22;3884;48.616;12.872;2023-04-01T03:54:57;8.30;1.00
7684;DHT22;3884;48.616;12.872;2023-04-01T03:57:24;8.20;1.00
7684;DHT22;3884;48.616;12.872;2023-04-01T03:59:52;8.20;1.00
7684;DHT22;3884;48.616;12.872;2023-04-01T04:02:19;8.20;99.90
7684;DHT22;3884;48.616;12.872;2023-04-01T04:04:48;8.30;99.90
7684;DHT22;3884;48.616;12.872;2023-04-01T04:07:14;8.20;1.00
7684;DHT22;3884;48.616;12.872;2023-04-01T04:09:59;8.20;1.00
7684;DHT22;3884;48.616;12.872;2023-04-01T04:12:26;8.20;1.00
7684;DHT22;3884;48.616;12.872;2023-04-01T04:14:53;8.20;1.00
7684;DHT22;3884;48.616;12.872;2023-04-01T04:17:20;8.20;1.00
7684;DHT22;3884;48.616;12.872;2023-04-01T04:19:49;8.20;1.00
7684;DHT22;3884;48.616;12.872;2023-04-01T04:22:16;8.20;1.00
7684;DHT22;3884;48.616;12.872;2023-04-01T04:24:42;8.20;1.00
7684;DHT22;3884;48.616;12.872;2023-04-01T04:27:12;8.20;1.00
7684;DHT22;3884;48.616;12.872;2023-04-01T04:29:51;8.20;27.90
7684;DHT22;3884;48.616;12.872;2023-04-01T04:32:18;8.20;99.90
7684;DHT22;3884;48.616;12.872;2023-04-01T04:34:45;8.10;1.00
7684;DHT22;3884;48.616;12.872;2023-04-01T04:37:13;8.10;99.90
7684;DHT22;3884;48.616;12.872;2023-04-01T04:39:40;8.10;1.00
7684;DHT22;3884;48.616;12.872;2023-04-01T04:42:07;8.10;99.90
7684;DHT22;3884;48.616;12.872;2023-04-01T04:44:34;8.10;1.00
7684;DHT22;3884;48.616;12.872;2023-04-01T04:47:01;8.10;1.00
7684;DHT22;3884;48.616;12.872;2023-04-01T04:49:28;8.10;1.00
7684;DHT22;3884;48.616;12.872;2023-04-01T04:51:55;8.10;1.00
7684;DHT22;3884;48.616;12.872;2023-04-01T04:54:27;8.00;1.00
7684;DHT22;3884;48.616;12.872;2023-04-01T04:56:56;8.10;1.00
7684;DHT22;3884;48.616;12.872;2023-04-01T04:59:25;8.10;99.90
7684;DHT22;3884;48.616;12.872;2023-04-01T05:02:01;8.10;1.00
7684;DHT22;3884;48.616;12.872;2023-04-01T05:04:28;8.10;1.00
7684;DHT22;3884;48.616;12.872;2023-04-01T05:06:55;8.20;1.00
7684;DHT22;3884;48.616;12.872;2023-04-01T05:09:23;8.20;2.20
7684;DHT22;3884;48.616;12.872;2023-04-01T05:11:51;8.20;1.00
7684;DHT22;3884;48.616;12.872;2023-04-01T05:14:19;8.20;1.00
7684;DHT22;3884;48.616;12.872;2023-04-01T05:16:59;8.20;1.00
7684;DHT22;3884;48.616;12.872;2023-04-01T05:19:26;8.20;1.00
7684;DHT22;3884;48.616;12.872;2023-04-01T05:21:53;8.10;1.00
7684;DHT22;3884;48.616;12.872;2023-04-01T05:24:20;8.20;1.00
7684;DHT22;3884;48.616;12.872;2023-04-01T05:26:47;8.10;1.00
7684;DHT22;3884;48.616;12.872;2023-04-01T05:29:15;8.10;1.00
7684;DHT22;3884;48.616;12.872;2023-04-01T05:31:44;8.10;1.00
7684;DHT22;3884;48.616;12.872;2023-04-01T05:34:13;8.10;1.00
7684;DHT22;3884;48.616;12.872;2023-04-01T05:36:39;8.10;99.90
7684;DHT22;3884;48.616;12.872;2023-04-01T05:39:07;8.10;1.00
7684;DHT22;3884;48.616;12.872;2023-04-01T05:41:35;8.10;1.00
7684;DHT22;3884;48.616;12.872;2023-04-01T05:44:02;8.10;99.90
7684;DHT22;3884;48.616;12.872;2023-04-01T05:46:42;8.10;99.90
7684;DHT22;3884;48.616;12.872;2023-04-01T05:49:35;8.00;1.00
7684;DHT22;3884;48.616;12.872;2023-04-01T05:52:03;8.00;1.00
7684;DHT22;3884;48.616;12.872;2023-04-01T05:54:33;8.00;99.90
7684;DHT22;3884;48.616;12.872;2023-04-01T05:57:00;8.00;99.90
7684;DHT22;3884;48.616;12.872;2023-04-01T05:59:27;7.90;1.00
7684;DHT22;3884;48.616;12.872;2023-04-01T06:01:55;7.90;99.90
7684;DHT22;3884;48.616;12.872;2023-04-01T06:04:22;7.90;99.90
7684;DHT22;3884;48.616;12.872;2023-04-01T06:06:49;8.00;1.00
7684;DHT22;3884;48.616;12.872;2023-04-01T06:09:19;7.90;1.00
7684;DHT22;3884;48.616;12.872;2023-04-01T06:12:09;8.00;1.00
7684;DHT22;3884;48.616;12.872;2023-04-01T06:14:53;8.00;1.00
7684;DHT22;3884;48.616;12.872;2023-04-01T06:17:30;8.00;99.90
7684;DHT22;3884;48.616;12.872;2023-04-01T06:20:04;8.10;99.90
7684;DHT22;3884;48.616;12.872;2023-04-01T06:22:46;8.10;99.90
7684;DHT22;3884;48.616;12.872;2023-04-01T06:25:26;8.10;99.90
7684;DHT22;3884;48.616;12.872;2023-04-01T06:28:09;8.20;1.00
7684;DHT22;3884;48.616;12.872;2023-04-01T06:30:45;8.20;99.90
7684;DHT22;3884;48.616;12.872;2023-04-01T06:33:34;8.30;99.90
7684;DHT22;3884;48.616;12.872;2023-04-01T06:36:36;8.40;99.90
7684;DHT22;3884;48.616;12.872;2023-04-01T06:39:22;8.50;22.20
7684;DHT22;3884;48.616;12.872;2023-04-01T06:42:13;8.50;96.90
7684;DHT22;3884;48.616;12.872;2023-04-01T06:44:48;8.60;1.00
7684;DHT22;3884;48.616;12.872;2023-04-01T06:47:42;8.60;10.80
7684;DHT22;3884;48.616;12.872;2023-04-01T06:50:55;8.70;1.00
7684;DHT22;3884;48.616;12.872;2023-04-01T06:53:51;8.70;1.00
7684;DHT22;3884;48.616;12.872;2023-04-01T06:56:42;8.80;1.00
7684;DHT22;3884;48.616;12.872;2023-04-01T06:59:25;8.80;1.00
7684;DHT22;3884;48.616;12.872;2023-04-01T07:01:54;8.80;1.00
7684;DHT22;3884;48.616;12.872;2023-04-01T07:04:26;8.90;1.00
7684;DHT22;3884;48.616;12.872;2023-04-01T07:06:58;8.90;1.00
7684;DHT22;3884;48.616;12.872;2023-04-01T07:09:30;9.00;1.00
7684;DHT22;3884;48.616;12.872;2023-04-01T07:12:38;9.10;1.00
7684;DHT22;3884;48.616;12.872;2023-04-01T07:15:18;9.10;1.00
7684;DHT22;3884;48.616;12.872;2023-04-01T07:17:50;9.20;99.90
7684;DHT22;3884;48.616;12.872;2023-04-01T07:20:23;9.30;99.90
7684;DHT22;3884;48.616;12.872;2023-04-01T07:22:57;9.30;99.90
7684;DHT22;3884;48.616;12.872;2023-04-01T07:25:31;9.30;99.90
7684;DHT22;3884;48.616;12.872;2023-04-01T07:28:31;9.30;99.90
7684;DHT22;3884;48.616;12.872;2023-04-01T07:31:13;9.30;99.90
7684;DHT22;3884;48.616;12.872;2023-04-01T07:33:48;9.30;99.90
7684;DHT22;3884;48.616;12.872;2023-04-01T07:36:21;9.40;99.90
7684;DHT22;3884;48.616;12.872;2023-04-01T07:38:59;9.40;99.90
7684;DHT22;3884;48.616;12.872;2023-04-01T07:42:04;9.50;99.90
7684;DHT22;3884;48.616;12.872;2023-04-01T07:44:39;9.50;99.90
7684;DHT22;3884;48.616;12.872;2023-04-01T07:47:22;9.50;99.90
7684;DHT22;3884;48.616;12.872;2023-04-01T07:50:02;9.60;39.00
7684;DHT22;3884;48.616;12.872;2023-04-01T07:52:39;9.60;1.00
7684;DHT22;3884;48.616;12.872;2023-04-01T07:55:24;9.80;64.60
7684;DHT22;3884;48.616;12.872;2023-04-01T07:58:02;9.80;1.00
7684;DHT22;3884;48.616;12.872;2023-04-01T08:00:42;9.80;1.00
7684;DHT22;3884;48.616;12.872;2023-04-01T08:03:43;9.80;1.00
7684;DHT22;3884;48.616;12.872;2023-04-01T08:06:19;9.80;1.00
7684;DHT22;3884;48.616;12.872;2023-04-01T08:08:57;9.80;1.00
7684;DHT22;3884;48.616;12.872;2023-04-01T08:11:59;9.80;1.00
7684;DHT22;3884;48.616;12.872;2023-04-01T08:14:54;9.80;1.00
7684;DHT22;3884;48.616;12.872;2023-04-01T08:17:30;9.80;1.00
7684;DHT22;3884;48.616;12.872;2023-04-01T08:20:12;9.80;1.00
7684;DHT22;3884;48.616;12.872;2023-04-01T08:22:42;9.90;1.00
7684;DHT22;3884;48.616;12.872;2023-04-01T08:25:21;10.00;1.00
7684;DHT22;3884;48.616;12.872;2023-04-01T08:27:54;10.10;1.00
7684;DHT22;3884;48.616;12.872;2023-04-01T08:30:24;10.00;1.00
7684;DHT22;3884;48.616;12.872;2023-04-01T08:32:55;10.20;1.00
7684;DHT22;3884;48.616;12.872;2023-04-01T08:35:28;10.40;1.00
7684;DHT22;3884;48.616;12.872;2023-04-01T08:38:01;10.20;1.00
7684;DHT22;3884;48.616;12.872;2023-04-01T08:40:49;10.10;1.00
7684;DHT22;3884;48.616;12.872;2023-04-01T08:43:34;10.00;1.00
7684;DHT22;3884;48.616;12.872;2023-04-01T08:46:19;10.10;1.00
7684;DHT22;3884;48.616;12.872;2023-04-01T08:49:02;10.40;1.00
7684;DHT22;3884;48.616;12.872;2023-04-01T08:55:04;10.70;1.00
7684;DHT22;3884;48.616;12.872;2023-04-01T08:58:35;10.80;99.90
7684;DHT22;3884;48.616;12.872;2023-04-01T09:07:42;10.90;99.90
7684;DHT22;3884;48.616;12.872;2023-04-01T09:10:41;10.80;99.90
7684;DHT22;3884;48.616;12.872;2023-04-01T09:14:02;10.90;99.90
7684;DHT22;3884;48.616;12.872;2023-04-01T09:16:56;10.90;92.40
7684;DHT22;3884;48.616;12.872;2023-04-01T09:19:34;10.90;66.80
7684;DHT22;3884;48.616;12.872;2023-04-01T09:22:24;10.90;54.80
7684;DHT22;3884;48.616;12.872;2023-04-01T09:25:24;10.90;22.80
7684;DHT22;3884;48.616;12.872;2023-04-01T09:27:57;11.00;1.00
7684;DHT22;3884;48.616;12.872;2023-04-01T09:30:38;10.90;1.00
7684;DHT22;3884;48.616;12.872;2023-04-01T09:36:40;10.80;1.00
7684;DHT22;3884;48.616;12.872;2023-04-01T09:39:24;10.80;1.00
7684;DHT22;3884;48.616;12.872;2023-04-01T09:42:05;10.70;1.00
7684;DHT22;3884;48.616;12.872;2023-04-01T09:44:42;10.80;1.00
7684;DHT22;3884;48.616;12.872;2023-04-01T09:47:28;10.90;1.00
7684;DHT22;3884;48.616;12.872;2023-04-01T09:50:16;11.00;1.00
7684;DHT22;3884;48.616;12.872;2023-04-01T09:52:49;11.10;1.00
7684;DHT22;3884;48.616;12.872;2023-04-01T09:59:15;11.10;1.00
7684;DHT22;3884;48.616;12.872;2023-04-01T10:05:44;11.20;1.00
7684;DHT22;3884;48.616;12.872;2023-04-01T10:08:37;11.30;1.00
7684;DHT22;3884;48.616;12.872;2023-04-01T10:14:36;11.40;1.00
7684;DHT22;3884;48.616;12.872;2023-04-01T10:17:35;11.70;1.00
7684;DHT22;3884;48.616;12.872;2023-04-01T10:20:37;11.70;1.00
7684;DHT22;3884;48.616;12.872;2023-04-01T10:33:20;11.70;1.00
7684;DHT22;3884;48.616;12.872;2023-04-01T10:39:17;11.50;1.00
7684;DHT22;3884;48.616;12.872;2023-04-01T10:45:52;11.50;1.00
7684;DHT22;3884;48.616;12.872;2023-04-01T10:48:52;11.30;1.00
7684;DHT22;3884;48.616;12.872;2023-04-01T10:51:43;11.40;1.00
7684;DHT22;3884;48.616;12.872;2023-04-01T10:54:45;11.30;1.00
7684;DHT22;3884;48.616;12.872;2023-04-01T10:58:00;11.50;1.00
7684;DHT22;3884;48.616;12.872;2023-04-01T11:01:11;11.40;1.00
7684;DHT22;3884;48.616;12.872;2023-04-01T11:04:40;11.30;1.00
7684;DHT22;3884;48.616;12.872;2023-04-01T11:07:58;11.40;1.00
7684;DHT22;3884;48.616;12.872;2023-04-01T11:17:14;11.20;1.00
7684;DHT22;3884;48.616;12.872;2023-04-01T11:26:04;11.30;1.00
7684;DHT22;3884;48.616;12.872;2023-04-01T11:29:08;11.50;1.00
7684;DHT22;3884;48.616;12.872;2023-04-01T11:31:55;11.60;1.00
7684;DHT22;3884;48.616;12.872;2023-04-01T11:34:43;11.60;1.00
7684;DHT22;3884;48.616;12.872;2023-04-01T11:37:25;11.70;1.00
7684;DHT22;3884;48.616;12.872;2023-04-01T11:40:42;11.60;1.00
7684;DHT22;3884;48.616;12.872;2023-04-01T11:43:33;11.60;1.00
7684;DHT22;3884;48.616;12.872;2023-04-01T11:46:27;11.60;1.00
7684;DHT22;3884;48.616;12.872;2023-04-01T11:49:05;11.50;1.00
7684;DHT22;3884;48.616;12.872;2023-04-01T11:51:56;11.50;1.00
7684;DHT22;3884;48.616;12.872;2023-04-01T11:54:37;11.50;1.00
7684;DHT22;3884;48.616;12.872;2023-04-01T11:57:34;11.50;1.00
7684;DHT22;3884;48.616;12.872;2023-04-01T12:00:18;11.30;1.00
7684;DHT22;3884;48.616;12.872;2023-04-01T12:03:00;11.20;1.00
7684;DHT22;3884;48.616;12.872;2023-04-01T12:05:38;11.30;1.00
7684;DHT22;3884;48.616;12.872;2023-04-01T12:08:27;11.30;43.40
7684;DHT22;3884;48.616;12.872;2023-04-01T12:11:03;11.30;43.50
7684;DHT22;3884;48.616;12.872;2023-04-01T12:13:40;11.40;99.90
7684;DHT22;3884;48.616;12.872;2023-04-01T12:16:29;11.40;88.00
7684;DHT22;3884;48.616;12.872;2023-04-01T12:19:03;11.40;36.10
7684;DHT22;3884;48.616;12.872;2023-04-01T12:21:36;11.50;86.90
7684;DHT22;3884;48.616;12.872;2023-04-01T12:24:29;11.60;44.20
7684;DHT22;3884;48.616;12.872;2023-04-01T12:27:10;11.60;52.10
7684;DHT22;3884;48.616;12.872;2023-04-01T12:29:51;11.70;18.90
7684;DHT22;3884;48.616;12.872;2023-04-01T12:32:27;11.70;2.20
7684;DHT22;3884;48.616;12.872;2023-04-01T12:35:13;11.60;1.00
7684;DHT22;3884;48.616;12.872;2023-04-01T12:37:50;11.50;18.00
7684;DHT22;3884;48.616;12.872;2023-04-01T12:43:45;10.50;94.50
7684;DHT22;3884;48.616;12.872;2023-04-01T12:46:22;10.00;1.00
7684;DHT22;3884;48.616;12.872;2023-04-01T12:49:10;9.90;1.00
7684;DHT22;3884;48.616;12.872;2023-04-01T12:52:03;10.10;1.00
7684;DHT22;3884;48.616;12.872;2023-04-01T12:55:14;10.20;99.90
7684;DHT22;3884;48.616;12.872;2023-04-01T13:01:07;10.40;99.90
7684;DHT22;3884;48.616;12.872;2023-04-01T13:06:48;10.40;99.90
7684;DHT22;3884;48.616;12.872;2023-04-01T13:09:25;10.50;99.90
7684;DHT22;3884;48.616;12.872;2023-04-01T13:15:09;10.50;99.90
7684;DHT22;3884;48.616;12.872;2023-04-01T13:17:43;10.50;99.90
7684;DHT22;3884;48.616;12.872;2023-04-01T13:20:20;10.00;1.00
7684;DHT22;3884;48.616;12.872;2023-04-01T13:23:02;9.40;1.00
7684;DHT22;3884;48.616;12.872;2023-04-01T13:25:38;9.20;99.90
7684;DHT22;3884;48.616;12.872;2023-04-01T13:28:12;9.30;1.00
7684;DHT22;3884;48.616;12.872;2023-04-01T13:30:49;9.50;99.90
7684;DHT22;3884;48.616;12.872;2023-04-01T13:33:27;9.70;1.00
7684;DHT22;3884;48.616;12.872;2023-04-01T13:36:10;9.80;1.00
7684;DHT22;3884;48.616;12.872;2023-04-01T13:38:52;9.70;1.00
7684;DHT22;3884;48.616;12.872;2023-04-01T13:41:29;9.60;1.00
7684;DHT22;3884;48.616;12.872;2023-04-01T13:44:09;9.80;1.00
7684;DHT22;3884;48.616;12.872;2023-04-01T13:46:53;9.90;1.00
7684;DHT22;3884;48.616;12.872;2023-04-01T13:49:37;10.10;99.90
7684;DHT22;3884;48.616;12.872;2023-04-01T13:52:27;10.00;99.90
7684;DHT22;3884;48.616;12.872;2023-04-01T13:58:14;10.10;1.00
7684;DHT22;3884;48.616;12.872;2023-04-01T14:00:55;9.80;1.00
7684;DHT22;3884;48.616;12.872;2023-04-01T14:03:30;9.80;99.90
7684;DHT22;3884;48.616;12.872;2023-04-01T14:11:55;9.50;99.90
7684;DHT22;3884;48.616;12.872;2023-04-01T14:14:32;9.50;1.00
7684;DHT22;3884;48.616;12.872;2023-04-01T14:17:24;9.50;99.90
7684;DHT22;3884;48.616;12.872;2023-04-01T14:20:07;9.30;1.00
7684;DHT22;3884;48.616;12.872;2023-04-01T14:22:49;9.30;1.00
7684;DHT22;3884;48.616;12.872;2023-04-01T14:25:33;9.00;99.90
7684;DHT22;3884;48.616;12.872;2023-04-01T14:28:14;9.00;1.00
7684;DHT22;3884;48.616;12.872;2023-04-01T14:30:50;9.00;1.00
7684;DHT22;3884;48.616;12.872;2023-04-01T14:33:38;8.90;1.00
7684;DHT22;3884;48.616;12.872;2023-04-01T14:36:41;8.90;99.90
7684;DHT22;3884;48.616;12.872;2023-04-01T14:39:36;8.80;99.90
7684;DHT22;3884;48.616;12.872;2023-04-01T14:42:23;8.80;1.00
7684;DHT22;3884;48.616;12.872;2023-04-01T14:45:20;8.70;1.00
7684;DHT22;3884;48.616;12.872;2023-04-01T14:47:53;8.70;1.00
7684;DHT22;3884;48.616;12.872;2023-04-01T14:50:24;8.70;99.90
7684;DHT22;3884;48.616;12.872;2023-04-01T14:53:08;8.70;99.90
7684;DHT22;3884;48.616;12.872;2023-04-01T14:55:49;8.70;1.00
7684;DHT22;3884;48.616;12.872;2023-04-01T14:58:19;8.70;99.90
7684;DHT22;3884;48.616;12.872;2023-04-01T15:00:51;8.70;1.00
7684;DHT22;3884;48.616;12.872;2023-04-01T15:03:26;8.60;69.10
7684;DHT22;3884;48.616;12.872;2023-04-01T15:05:56;8.70;99.90
7684;DHT22;3884;48.616;12.872;2023-04-01T15:08:29;8.70;99.90
7684;DHT22;3884;48.616;12.872;2023-04-01T15:14:08;8.60;99.90
7684;DHT22;3884;48.616;12.872;2023-04-01T15:16:53;8.70;1.00
7684;DHT22;3884;48.616;12.872;2023-04-01T15:19:30;8.60;1.00
7684;DHT22;3884;48.616;12.872;2023-04-01T15:22:22;8.60;1.00
7684;DHT22;3884;48.616;12.872;2023-04-01T15:25:19;8.60;1.00
7684;DHT22;3884;48.616;12.872;2023-04-01T15:27:52;8.60;1.00
7684;DHT22;3884;48.616;12.872;2023-04-01T15:30:30;8.70;1.00
7684;DHT22;3884;48.616;12.872;2023-04-01T15:35:55;8.70;1.00
7684;DHT22;3884;48.616;12.872;2023-04-01T15:38:31;8.70;1.00
7684;DHT22;3884;48.616;12.872;2023-04-01T15:41:06;8.70;1.00
7684;DHT22;3884;48.616;12.872;2023-04-01T15:43:40;8.80;1.00
7684;DHT22;3884;48.616;12.872;2023-04-01T15:46:25;8.70;1.00
7684;DHT22;3884;48.616;12.872;2023-04-01T15:49:03;8.70;1.00
7684;DHT22;3884;48.616;12.872;2023-04-01T15:51:54;8.80;1.00
7684;DHT22;3884;48.616;12.872;2023-04-01T15:54:38;8.70;1.00
7684;DHT22;3884;48.616;12.872;2023-04-01T15:57:20;8.70;1.00
7684;DHT22;3884;48.616;12.872;2023-04-01T16:00:02;8.70;1.00
7684;DHT22;3884;48.616;12.872;2023-04-01T16:02:45;8.70;1.00
7684;DHT22;3884;48.616;12.872;2023-04-01T16:05:31;8.70;1.00
7684;DHT22;3884;48.616;12.872;2023-04-01T16:08:16;8.80;1.00
7684;DHT22;3884;48.616;12.872;2023-04-01T16:10:59;8.80;99.90
7684;DHT22;3884;48.616;12.872;2023-04-01T16:13:37;8.80;1.00
7684;DHT22;3884;48.616;12.872;2023-04-01T16:16:17;8.80;99.90
7684;DHT22;3884;48.616;12.872;2023-04-01T16:19:07;8.90;94.60
7684;DHT22;3884;48.616;12.872;2023-04-01T16:21:41;8.90;99.90
7684;DHT22;3884;48.616;12.872;2023-04-01T16:24:15;9.00;1.00
7684;DHT22;3884;48.616;12.872;2023-04-01T16:26:49;9.00;99.90
7684;DHT22;3884;48.616;12.872;2023-04-01T16:29:24;9.00;99.90
7684;DHT22;3884;48.616;12.872;2023-04-01T16:31:58;9.00;1.00
7684;DHT22;3884;48.616;12.872;2023-04-01T16:34:31;9.00;2.60
7684;DHT22;3884;48.616;12.872;2023-04-01T16:37:05;9.00;1.00
7684;DHT22;3884;48.616;12.872;2023-04-01T16:39:44;9.00;99.90
7684;DHT22;3884;48.616;12.872;2023-04-01T16:42:24;9.10;99.90
7684;DHT22;3884;48.616;12.872;2023-04-01T16:44:55;9.00;1.00
7684;DHT22;3884;48.616;12.872;2023-04-01T16:47:29;9.00;1.00
7684;DHT22;3884;48.616;12.872;2023-04-01T16:50:00;9.00;1.00
7684;DHT22;3884;48.616;12.872;2023-04-01T16:52:42;9.00;99.90
7684;DHT22;3884;48.616;12.872;2023-04-01T16:55:16;9.00;33.60
7684;DHT22;3884;48.616;12.872;2023-04-01T16:57:50;9.00;1.00
7684;DHT22;3884;48.616;12.872;2023-04-01T17:00:24;9.00;99.90
7684;DHT22;3884;48.616;12.872;2023-04-01T17:03:10;9.00;1.00
7684;DHT22;3884;48.616;12.872;2023-04-01T17:05:52;9.00;1.00
7684;DHT22;3884;48.616;12.872;2023-04-01T17:08:33;8.90;99.90
7684;DHT22;3884;48.616;12.872;2023-04-01T17:11:08;9.00;99.90
7684;DHT22;3884;48.616;12.872;2023-04-01T17:13:46;9.00;1.00
7684;DHT22;3884;48.616;12.872;2023-04-01T17:16:28;9.00;1.00
7684;DHT22;3884;48.616;12.872;2023-04-01T17:19:05;8.90;1.00
7684;DHT22;3884;48.616;12.872;2023-04-01T17:21:49;8.90;1.00
7684;DHT22;3884;48.616;12.872;2023-04-01T17:24:29;8.90;99.90
7684;DHT22;3884;48.616;12.872;2023-04-01T17:27:04;8.90;72.10
7684;DHT22;3884;48.616;12.872;2023-04-01T17:29:46;8.90;1.00
7684;DHT22;3884;48.616;12.872;2023-04-01T17:32:31;8.90;1.00
7684;DHT22;3884;48.616;12.872;2023-04-01T17:35:06;8.90;1.00
7684;DHT22;3884;48.616;12.872;2023-04-01T17:37:45;8.90;1.00
7684;DHT22;3884;48.616;12.872;2023-04-01T17:40:34;8.90;99.90
7684;DHT22;3884;48.616;12.872;2023-04-01T17:43:12;8.90;99.90
7684;DHT22;3884;48.616;12.872;2023-04-01T17:45:47;8.90;99.90
7684;DHT22;3884;48.616;12.872;2023-04-01T17:48:27;8.90;99.90
7684;DHT22;3884;48.616;12.872;2023-04-01T17:51:11;9.00;39.70
7684;DHT22;3884;48.616;12.872;2023-04-01T17:53:48;9.00;97.40
7684;DHT22;3884;48.616;12.872;2023-04-01T17:56:23;9.00;1.00
7684;DHT22;3884;48.616;12.872;2023-04-01T17:58:59;9.00;99.90
7684;DHT22;3884;48.616;12.872;2023-04-01T18:01:40;8.90;99.90
7684;DHT22;3884;48.616;12.872;2023-04-01T18:04:34;9.00;1.00
7684;DHT22;3884;48.616;12.872;2023-04-01T18:07:18;9.00;1.00
7684;DHT22;3884;48.616;12.872;2023-04-01T18:09:57;8.90;1.00
7684;DHT22;3884;48.616;12.872;2023-04-01T18:12:34;9.00;1.00
7684;DHT22;3884;48.616;12.872;2023-04-01T18:15:19;9.00;30.30
7684;DHT22;3884;48.616;12.872;2023-04-01T18:17:57;8.90;1.00
7684;DHT22;3884;48.616;12.872;2023-04-01T18:20:35;8.90;99.90
7684;DHT22;3884;48.616;12.872;2023-04-01T18:23:19;8.90;1.00
7684;DHT22;3884;48.616;12.872;2023-04-01T18:25:52;8.90;1.00
7684;DHT22;3884;48.616;12.872;2023-04-01T18:28:32;8.80;99.90
7684;DHT22;3884;48.616;12.872;2023-04-01T18:31:06;8.80;99.90
7684;DHT22;3884;48.616;12.872;2023-04-01T18:33:42;8.70;99.90
7684;DHT22;3884;48.616;12.872;2023-04-01T18:36:18;8.70;1.00
7684;DHT22;3884;48.616;12.872;2023-04-01T18:38:50;8.60;1.00
7684;DHT22;3884;48.616;12.872;2023-04-01T18:41:29;8.60;1.00
7684;DHT22;3884;48.616;12.872;2023-04-01T18:44:12;8.60;99.90